East St Louis, Illinois
Current Conditions -  °F | °C
As of 6:06 AM on Thursday 23 Oct 2014 (Local Time) from KCPS Reporting Station
Haze Haze  
Wind Chill: 37°   Ceiling: Unl
Heat Index: 37°   Visibility: 1.7mi
Dew Point: 36°   Wind: 0mph
Humidity: 96%   Direction: NA
Pressure: 30.21"   Gusts: NA
Location:  38.6386°N, 90.1321°W
Report Text: KCPS 231106Z 00000KT 1 3/4SM BR CLR 03/02 A3021 RMK AO2 T00280022
Loading
Personal Weather Stations






























Interactive Weather Map
Tropical Storm Tracking
New forecast layout! Learn more

10-Day Weather Forecast

Advertisements
Track Severe Weather on mobile